Ensign — WBN3012 — position and weather

sailwx.info

Track history (hours):
 
Tides and Currents Weather Stations Pressure Air Temp Water Temp Dewpoint Dewpoint Depression Visibility Wind Speed Wind Dir Waves Ship Positions

Ensign

Owner: Crowley Puerto Rico Services, Inc., Jacksonville, FL. More information available from US FCC via Universal Licensing System and Coast Guard Vessel Documentation Center.

Last reported at 2017-Nov-19 13:22 UTC. Time now 2017-Dec-12 22:00 UTC.
Position N 26°31' W 079°57'.
Warning: this ship's position is 23 days out of date.

Length 40 m; draft 5.2 m.

Type: Towing. MMSI: 366766850.

Date/timePositionNaut miles runAvg speedWind from/ knotsBaromVisibWave heightAir tempDewpointWater temp
2017-Nov-19 13:22N 26°31' W 079°57'3 9.2
2017-Nov-19 13:01N 26°34' W 079°58'4 7.2
2017-Nov-19 12:30N 26°38' W 079°59'3 6.7
2017-Nov-19 12:00N 26°41' W 079°59'4 7.3
2017-Nov-19 11:30N 26°45' W 079°58'4 7.0
2017-Nov-19 10:57N 26°49' W 079°58'5 6.8
2017-Nov-19 10:13N 26°54' W 079°58'1 6.5
2017-Nov-19 10:00N 26°55' W 079°58'3 6.5
2017-Nov-19 09:31N 26°58' W 079°58'3 6.6
2017-Nov-19 09:01N 27°02' W 079°58'216 8.6
2017-Nov-18 08:00N 30°24' W 081°24'4 8.2
2017-Nov-18 07:29N 30°24' W 081°29'510.0
2017-Nov-18 07:00N 30°24' W 081°34'3 6.3
2017-Nov-18 06:30N 30°22' W 081°38'1 0.7
2017-Nov-18 05:08N 30°21' W 081°37'  
2017-Nov-12 05:38N 27°02' W 080°00'1 7.9
2017-Nov-12 05:31N 27°01' W 080°00'4 8.6
2017-Nov-12 05:00N 26°56' W 080°00'4 8.5
2017-Nov-12 04:30N 26°52' W 079°60'  
Track history (hours):
 
Tides and Currents Weather Stations Pressure Air Temp Water Temp Dewpoint Dewpoint Depression Visibility Wind Speed Wind Dir Waves Ship Positions

Ensign

Owner: Crowley Puerto Rico Services, Inc., Jacksonville, FL. More information available from US FCC via Universal Licensing System and Coast Guard Vessel Documentation Center.

Last reported at 2017-Nov-19 13:22 UTC. Time now 2017-Dec-12 22:00 UTC.
Position N 26°31' W 079°57'.
Warning: this ship's position is 23 days out of date.

Length 40 m; draft 5.2 m.

Type: Towing. MMSI: 366766850.

Date/timePositionNaut miles runAvg speedWind from/ knotsBaromVisibWave heightAir tempDewpointWater temp
2017-Nov-19 13:22N 26°31' W 079°57'3 9.2
2017-Nov-19 13:01N 26°34' W 079°58'4 7.2
2017-Nov-19 12:30N 26°38' W 079°59'3 6.7
2017-Nov-19 12:00N 26°41' W 079°59'4 7.3
2017-Nov-19 11:30N 26°45' W 079°58'4 7.0
2017-Nov-19 10:57N 26°49' W 079°58'5 6.8
2017-Nov-19 10:13N 26°54' W 079°58'1 6.5
2017-Nov-19 10:00N 26°55' W 079°58'3 6.5
2017-Nov-19 09:31N 26°58' W 079°58'3 6.6
2017-Nov-19 09:01N 27°02' W 079°58'216 8.6
2017-Nov-18 08:00N 30°24' W 081°24'4 8.2
2017-Nov-18 07:29N 30°24' W 081°29'510.0
2017-Nov-18 07:00N 30°24' W 081°34'3 6.3
2017-Nov-18 06:30N 30°22' W 081°38'1 0.7
2017-Nov-18 05:08N 30°21' W 081°37'  
2017-Nov-12 05:38N 27°02' W 080°00'1 7.9
2017-Nov-12 05:31N 27°01' W 080°00'4 8.6
2017-Nov-12 05:00N 26°56' W 080°00'4 8.5
2017-Nov-12 04:30N 26°52' W 079°60'  

Dump ship's entire track history